createdAt,value
2017-08-30T00:02:10.887Z,7.93
2017-08-30T00:04:37.591Z,8.20
2017-08-30T00:07:04.296Z,9.03
2017-08-30T00:09:31.020Z,6.50
2017-08-30T00:11:57.798Z,6.90
2017-08-30T00:14:24.503Z,7.90
2017-08-30T00:16:51.218Z,6.30
2017-08-30T00:19:17.914Z,7.93
2017-08-30T00:21:44.618Z,7.63
2017-08-30T00:24:11.366Z,7.40
2017-08-30T00:26:38.093Z,11.40
2017-08-30T00:29:04.869Z,8.10
2017-08-30T00:31:31.592Z,7.23
2017-08-30T00:33:58.321Z,7.83
2017-08-30T00:36:25.029Z,7.00
2017-08-30T00:38:51.761Z,8.97
2017-08-30T00:41:18.486Z,8.33
2017-08-30T00:43:45.220Z,7.60
2017-08-30T00:46:11.952Z,9.40
2017-08-30T00:48:38.645Z,7.80
2017-08-30T00:51:05.370Z,8.27
2017-08-30T00:53:32.098Z,8.33
2017-08-30T00:55:58.808Z,7.80
2017-08-30T00:58:25.513Z,6.83
2017-08-30T01:00:52.252Z,9.07
2017-08-30T01:03:18.969Z,7.20
2017-08-30T01:05:45.696Z,8.23
2017-08-30T01:08:12.431Z,7.80
2017-08-30T01:10:39.140Z,9.17
2017-08-30T01:13:05.827Z,8.50
2017-08-30T01:15:32.568Z,7.73
2017-08-30T01:17:59.336Z,7.03
2017-08-30T01:20:26.118Z,7.73
2017-08-30T01:22:52.900Z,7.50
2017-08-30T01:25:19.631Z,7.60
2017-08-30T01:27:46.371Z,7.50
2017-08-30T01:30:13.210Z,7.77
2017-08-30T01:32:39.919Z,7.60
2017-08-30T01:35:06.621Z,13.30
2017-08-30T01:37:33.350Z,8.30
2017-08-30T01:40:00.047Z,8.33
2017-08-30T01:42:26.829Z,8.43
2017-08-30T01:44:53.553Z,8.50
2017-08-30T01:47:20.246Z,8.40
2017-08-30T01:49:46.956Z,9.37
2017-08-30T01:52:13.697Z,8.20
2017-08-30T01:54:40.408Z,8.13
2017-08-30T01:57:07.128Z,8.93
2017-08-30T01:59:33.860Z,8.83
2017-08-30T02:02:00.611Z,8.80
2017-08-30T02:04:27.326Z,8.67
2017-08-30T02:06:54.064Z,8.77
2017-08-30T02:09:20.768Z,9.17
2017-08-30T02:11:47.466Z,8.77
2017-08-30T02:14:14.184Z,8.80
2017-08-30T02:16:40.892Z,8.70
2017-08-30T02:19:07.590Z,10.60
2017-08-30T02:21:34.328Z,9.80
2017-08-30T02:24:07.044Z,9.03
2017-08-30T02:26:33.755Z,8.73
2017-08-30T02:29:00.490Z,9.60
2017-08-30T02:31:27.190Z,9.50
2017-08-30T02:33:54.048Z,8.80
2017-08-30T02:36:20.842Z,9.30
2017-08-30T02:38:47.558Z,11.30
2017-08-30T02:41:14.248Z,9.77
2017-08-30T02:43:40.989Z,10.00
2017-08-30T02:46:07.706Z,11.03
2017-08-30T02:48:34.483Z,9.43
2017-08-30T02:51:01.225Z,8.90
2017-08-30T02:53:27.911Z,8.67
2017-08-30T02:55:54.612Z,9.67
2017-08-30T02:58:21.335Z,9.30
2017-08-30T03:00:48.037Z,9.43
2017-08-30T03:03:14.743Z,11.37
2017-08-30T03:05:41.478Z,9.73
2017-08-30T03:08:08.179Z,10.73
2017-08-30T03:10:34.883Z,10.33
2017-08-30T03:13:01.679Z,8.77
2017-08-30T03:15:28.409Z,11.03
2017-08-30T03:17:55.160Z,10.67
2017-08-30T03:20:21.921Z,9.40
2017-08-30T03:22:48.627Z,11.10
2017-08-30T03:25:15.329Z,10.50
2017-08-30T03:27:42.067Z,10.30
2017-08-30T03:30:08.820Z,10.73
2017-08-30T03:32:35.526Z,9.97
2017-08-30T03:35:02.264Z,10.27
2017-08-30T03:37:28.965Z,9.53
2017-08-30T03:39:55.670Z,10.83
2017-08-30T03:42:22.396Z,10.07
2017-08-30T03:44:49.102Z,11.50
2017-08-30T03:47:15.880Z,9.87
2017-08-30T03:49:42.607Z,11.40
2017-08-30T03:52:09.379Z,10.77
2017-08-30T03:54:36.095Z,9.70
2017-08-30T03:57:02.810Z,9.70
2017-08-30T03:59:29.510Z,9.97
2017-08-30T04:01:56.216Z,10.50
2017-08-30T04:04:22.946Z,9.77
2017-08-30T04:06:49.726Z,10.70
2017-08-30T04:09:16.435Z,10.47
2017-08-30T04:11:43.168Z,11.13
2017-08-30T04:14:10.024Z,10.90
2017-08-30T04:16:36.723Z,10.30
2017-08-30T04:19:03.456Z,11.20
2017-08-30T04:21:30.169Z,12.10
2017-08-30T04:23:56.872Z,10.33
2017-08-30T04:26:23.584Z,9.60
2017-08-30T04:28:50.277Z,10.73
2017-08-30T04:31:17.006Z,10.33
2017-08-30T04:33:43.718Z,10.30
2017-08-30T04:36:10.418Z,10.90
2017-08-30T04:38:37.715Z,11.10
2017-08-30T04:41:04.463Z,11.20
2017-08-30T04:43:31.168Z,11.93
2017-08-30T04:45:57.878Z,11.03
2017-08-30T04:48:24.597Z,11.87
2017-08-30T04:50:51.294Z,10.43
2017-08-30T04:53:17.982Z,10.90
2017-08-30T04:55:44.704Z,11.87
2017-08-30T04:58:11.417Z,11.70
2017-08-30T05:00:38.121Z,11.60
2017-08-30T05:03:04.846Z,10.63
2017-08-30T05:05:31.547Z,11.10
2017-08-30T05:07:58.238Z,14.83
2017-08-30T05:10:24.964Z,10.30
2017-08-30T05:12:51.666Z,10.63
2017-08-30T05:15:18.361Z,10.93
2017-08-30T05:17:45.080Z,11.53
2017-08-30T05:20:11.784Z,12.20
2017-08-30T05:22:38.492Z,11.07
2017-08-30T05:25:05.238Z,12.50
2017-08-30T05:27:31.943Z,12.77
2017-08-30T05:29:58.647Z,11.70
2017-08-30T05:32:25.397Z,11.97
2017-08-30T05:34:52.092Z,15.13
2017-08-30T05:37:18.803Z,13.97
2017-08-30T05:39:45.527Z,11.50
2017-08-30T05:42:12.225Z,12.50
2017-08-30T05:44:38.931Z,12.73
2017-08-30T05:47:05.663Z,13.20
2017-08-30T05:49:32.366Z,13.97
2017-08-30T05:51:59.091Z,12.83
2017-08-30T05:54:25.810Z,12.73
2017-08-30T05:56:52.509Z,14.17
2017-08-30T05:59:19.227Z,16.03
2017-08-30T06:01:45.989Z,12.90
2017-08-30T06:04:12.694Z,12.70
2017-08-30T06:06:39.393Z,13.37
2017-08-30T06:09:06.130Z,13.47
2017-08-30T06:11:32.846Z,12.17
2017-08-30T06:13:59.564Z,14.30
2017-08-30T06:16:26.282Z,12.63
2017-08-30T06:18:52.987Z,13.13
2017-08-30T06:21:19.701Z,13.97
2017-08-30T06:23:46.421Z,11.87
2017-08-30T06:26:13.114Z,11.90
2017-08-30T06:28:39.806Z,12.60
2017-08-30T06:31:06.531Z,13.13
2017-08-30T06:33:33.233Z,10.80
2017-08-30T06:35:59.973Z,14.13
2017-08-30T06:38:26.705Z,11.80
2017-08-30T06:40:53.390Z,12.93
2017-08-30T06:43:20.090Z,12.27
2017-08-30T06:45:46.806Z,11.53
2017-08-30T06:48:13.495Z,10.90
2017-08-30T06:50:40.187Z,11.73
2017-08-30T06:53:06.907Z,12.07
2017-08-30T06:55:33.615Z,11.90
2017-08-30T06:58:00.341Z,13.80
2017-08-30T07:00:27.075Z,12.27
2017-08-30T07:02:53.778Z,12.33
2017-08-30T07:05:20.479Z,12.03
2017-08-30T07:07:47.226Z,11.57
2017-08-30T07:10:13.929Z,13.93
2017-08-30T07:12:40.631Z,11.93
2017-08-30T07:15:07.354Z,11.60
2017-08-30T07:17:34.048Z,13.50
2017-08-30T07:20:00.774Z,12.37
2017-08-30T07:22:27.503Z,11.47
2017-08-30T07:24:54.203Z,11.53
2017-08-30T07:27:20.899Z,10.60
2017-08-30T07:29:47.654Z,11.37
2017-08-30T07:32:14.355Z,11.40
2017-08-30T07:34:41.053Z,10.50
2017-08-30T07:37:07.784Z,15.67
2017-08-30T07:39:34.514Z,16.00
2017-08-30T07:42:01.220Z,10.77
2017-08-30T07:44:27.934Z,10.50
2017-08-30T07:46:54.634Z,9.50
2017-08-30T07:49:21.371Z,11.70
2017-08-30T07:51:48.111Z,11.00
2017-08-30T07:54:14.845Z,11.50
2017-08-30T07:56:41.571Z,11.37
2017-08-30T07:59:08.350Z,12.03
2017-08-30T08:01:35.080Z,17.33
2017-08-30T08:04:01.783Z,11.33
2017-08-30T08:06:28.544Z,13.17
2017-08-30T08:08:55.263Z,14.37
2017-08-30T08:11:21.959Z,18.00
2017-08-30T08:13:48.700Z,13.17
2017-08-30T08:16:15.416Z,11.53
2017-08-30T08:18:42.129Z,12.03
2017-08-30T08:21:08.860Z,12.57
2017-08-30T08:23:35.582Z,12.07
2017-08-30T08:26:02.308Z,11.37
2017-08-30T08:28:29.036Z,19.60
2017-08-30T08:30:55.752Z,13.03
2017-08-30T08:33:22.461Z,16.13
2017-08-30T08:35:49.174Z,10.10
2017-08-30T08:38:15.890Z,13.10
2017-08-30T08:40:42.581Z,9.93
2017-08-30T08:43:09.317Z,9.77
2017-08-30T08:45:36.018Z,9.73
2017-08-30T08:48:02.731Z,10.10
2017-08-30T08:50:29.515Z,10.00
2017-08-30T08:52:56.237Z,11.07
2017-08-30T08:55:22.988Z,10.73
2017-08-30T08:57:49.732Z,10.60
2017-08-30T09:00:16.461Z,9.83
2017-08-30T09:02:43.172Z,10.37
2017-08-30T09:05:10.125Z,10.67
2017-08-30T09:07:36.826Z,9.63
2017-08-30T09:10:03.514Z,11.17
2017-08-30T09:12:30.273Z,9.00
2017-08-30T09:14:56.996Z,9.47
2017-08-30T09:17:23.708Z,10.40
2017-08-30T09:19:50.423Z,10.13
2017-08-30T09:22:17.130Z,10.30
2017-08-30T09:24:43.826Z,10.73
2017-08-30T09:27:10.543Z,11.53
2017-08-30T09:29:37.243Z,9.43
2017-08-30T09:32:03.939Z,10.73
2017-08-30T09:34:30.682Z,11.30
2017-08-30T09:36:57.384Z,12.47
2017-08-30T09:39:24.088Z,10.53
2017-08-30T09:42:05.530Z,11.97
2017-08-30T09:44:33.161Z,10.03
2017-08-30T09:46:59.905Z,13.80
2017-08-30T09:49:26.718Z,10.17
2017-08-30T09:51:53.526Z,10.43
2017-08-30T09:54:20.359Z,10.60
2017-08-30T09:56:47.074Z,8.80
2017-08-30T09:59:13.790Z,10.20
2017-08-30T10:01:40.667Z,9.00
2017-08-30T10:04:07.389Z,9.10
2017-08-30T10:06:34.087Z,9.03
2017-08-30T10:09:00.798Z,8.67
2017-08-30T10:11:27.536Z,10.10
2017-08-30T10:13:54.238Z,9.47
2017-08-30T10:16:20.963Z,9.50
2017-08-30T10:18:47.778Z,9.30
2017-08-30T10:21:14.521Z,9.10
2017-08-30T10:23:41.237Z,8.93
2017-08-30T10:26:08.127Z,8.97
2017-08-30T10:28:34.843Z,12.13
2017-08-30T10:31:01.618Z,8.27
2017-08-30T10:33:28.588Z,10.00
2017-08-30T10:35:56.067Z,8.23
2017-08-30T10:38:22.797Z,11.73
2017-08-30T10:40:49.563Z,13.23
2017-08-30T10:43:16.342Z,10.70
2017-08-30T10:45:43.060Z,8.33
2017-08-30T10:48:09.805Z,8.70
2017-08-30T10:50:36.594Z,7.77
2017-08-30T10:53:03.466Z,9.73
2017-08-30T10:55:30.192Z,8.30
2017-08-30T10:57:56.920Z,9.10
2017-08-30T11:00:23.646Z,7.97
2017-08-30T11:02:50.396Z,8.50
2017-08-30T11:05:17.302Z,8.73
2017-08-30T11:07:44.024Z,8.37
2017-08-30T11:10:10.804Z,8.60
2017-08-30T11:12:37.820Z,8.33
2017-08-30T11:15:04.536Z,8.50
2017-08-30T11:17:31.515Z,8.37
2017-08-30T11:19:58.437Z,11.80
2017-08-30T11:22:25.161Z,8.30
2017-08-30T11:24:51.956Z,9.60
2017-08-30T11:27:18.686Z,8.50
2017-08-30T11:29:45.444Z,8.77
2017-08-30T11:32:12.263Z,9.53
2017-08-30T11:34:38.970Z,8.37
2017-08-30T11:37:05.726Z,6.67
2017-08-30T11:39:32.462Z,8.40
2017-08-30T11:41:59.178Z,8.20
2017-08-30T11:44:25.976Z,7.30
2017-08-30T11:46:52.718Z,8.13
2017-08-30T11:49:19.436Z,8.77
2017-08-30T11:51:46.239Z,7.60
2017-08-30T11:54:13.869Z,8.93
2017-08-30T11:56:40.577Z,7.80
2017-08-30T11:59:07.294Z,7.70
2017-08-30T12:01:34.018Z,7.63
2017-08-30T12:04:00.792Z,7.83
2017-08-30T12:06:27.505Z,8.03
2017-08-30T12:08:54.244Z,7.40
2017-08-30T12:11:20.963Z,7.80
2017-08-30T12:13:47.670Z,8.50
2017-08-30T12:16:14.454Z,8.07
2017-08-30T12:18:41.152Z,9.50
2017-08-30T12:21:07.865Z,8.20
2017-08-30T12:23:34.741Z,7.67
2017-08-30T12:26:01.466Z,8.20
2017-08-30T12:28:28.195Z,8.37
2017-08-30T12:30:54.997Z,7.63
2017-08-30T12:33:21.710Z,7.73
2017-08-30T12:35:48.409Z,7.90
2017-08-30T12:38:20.948Z,7.30
2017-08-30T12:40:47.742Z,7.40
2017-08-30T12:43:14.448Z,7.10
2017-08-30T12:45:41.187Z,8.03
2017-08-30T12:48:07.911Z,6.70
2017-08-30T12:50:34.661Z,7.03
2017-08-30T12:53:01.617Z,7.77
2017-08-30T12:55:28.363Z,7.63
2017-08-30T12:57:55.268Z,7.40
2017-08-30T13:00:22.070Z,7.83
2017-08-30T13:02:48.967Z,7.00
2017-08-30T13:05:15.812Z,9.57
2017-08-30T13:07:42.637Z,7.20
2017-08-30T13:10:09.436Z,9.80
2017-08-30T13:12:36.185Z,6.87
2017-08-30T13:15:03.003Z,6.87
2017-08-30T13:17:29.760Z,7.00
2017-08-30T13:19:56.637Z,7.00
2017-08-30T13:22:23.484Z,6.90
2017-08-30T13:24:50.288Z,7.50
2017-08-30T13:27:17.155Z,7.13
2017-08-30T13:29:44.007Z,6.67
2017-08-30T13:32:10.803Z,6.73
2017-08-30T13:34:37.587Z,7.47
2017-08-30T13:37:04.307Z,6.40
2017-08-30T13:39:31.035Z,6.93
2017-08-30T13:41:57.736Z,7.63
2017-08-30T13:44:24.479Z,6.80
2017-08-30T13:46:51.191Z,6.63
2017-08-30T13:49:17.903Z,7.40
2017-08-30T13:51:44.669Z,6.50
2017-08-30T13:54:11.356Z,6.20
2017-08-30T13:56:38.052Z,6.63
2017-08-30T13:59:04.815Z,7.00
2017-08-30T14:01:31.530Z,7.27
2017-08-30T14:03:58.236Z,6.37
2017-08-30T14:06:24.963Z,7.97
2017-08-30T14:08:51.785Z,5.93
2017-08-30T14:11:18.478Z,7.17
2017-08-30T14:13:45.221Z,5.90
2017-08-30T14:16:11.926Z,6.67
2017-08-30T14:18:38.659Z,6.30
2017-08-30T14:21:05.459Z,13.30
2017-08-30T14:23:32.195Z,6.67
2017-08-30T14:25:58.898Z,8.40
2017-08-30T14:28:25.632Z,6.87
2017-08-30T14:30:52.688Z,7.23
2017-08-30T14:33:19.390Z,6.63
2017-08-30T14:35:46.109Z,6.50
2017-08-30T14:38:12.808Z,6.77
2017-08-30T14:40:39.508Z,6.93
2017-08-30T14:43:06.249Z,7.03
2017-08-30T14:45:33.026Z,7.83
2017-08-30T14:47:59.711Z,7.53
2017-08-30T14:50:26.430Z,7.30
2017-08-30T14:52:53.118Z,8.73
2017-08-30T14:55:19.820Z,6.63
2017-08-30T14:57:46.558Z,6.83
2017-08-30T15:00:13.243Z,6.40
2017-08-30T15:02:39.935Z,6.30
2017-08-30T15:05:06.658Z,6.30
2017-08-30T15:07:33.350Z,7.07
2017-08-30T15:10:00.051Z,6.53
2017-08-30T15:12:26.812Z,6.63
2017-08-30T15:14:53.518Z,7.93
2017-08-30T15:17:20.255Z,7.50
2017-08-30T15:19:46.979Z,6.90
2017-08-30T15:22:13.670Z,6.70
2017-08-30T15:24:40.369Z,6.70
2017-08-30T15:27:07.098Z,6.83
2017-08-30T15:29:33.792Z,7.27
2017-08-30T15:32:00.486Z,7.53
2017-08-30T15:34:27.463Z,6.93
2017-08-30T15:36:54.168Z,6.00
2017-08-30T15:39:20.863Z,7.13
2017-08-30T15:41:47.792Z,6.80
2017-08-30T15:44:14.475Z,7.23
2017-08-30T15:46:41.170Z,7.10
2017-08-30T15:49:07.904Z,6.87
2017-08-30T15:51:34.592Z,6.77
2017-08-30T15:54:01.296Z,8.00
2017-08-30T15:56:28.268Z,7.03
2017-08-30T15:58:54.960Z,8.80
2017-08-30T16:01:21.652Z,7.03
2017-08-30T16:03:57.665Z,6.93
2017-08-30T16:09:21.187Z,7.60
2017-08-30T16:11:47.935Z,8.90
2017-08-30T16:14:14.740Z,7.60
2017-08-30T16:16:41.465Z,8.47
2017-08-30T16:19:08.243Z,9.00
2017-08-30T16:21:34.946Z,8.07
2017-08-30T16:24:01.664Z,8.53
2017-08-30T16:26:28.373Z,8.00
2017-08-30T16:28:55.104Z,13.77
2017-08-30T16:31:22.017Z,12.17
2017-08-30T16:33:48.720Z,12.17
2017-08-30T16:36:15.497Z,7.27
2017-08-30T16:38:42.254Z,7.43
2017-08-30T16:41:08.949Z,8.60
2017-08-30T16:43:35.640Z,8.93
2017-08-30T16:46:02.409Z,12.07
2017-08-30T16:48:29.136Z,13.93
2017-08-30T16:50:55.845Z,16.93
2017-08-30T16:53:22.690Z,11.47
2017-08-30T16:55:49.399Z,10.67
2017-08-30T16:58:16.103Z,9.57
2017-08-30T17:00:42.870Z,9.67
2017-08-30T17:03:09.603Z,9.10
2017-08-30T17:05:36.328Z,9.27
2017-08-30T17:08:03.053Z,9.07
2017-08-30T17:10:29.776Z,8.17
2017-08-30T17:12:56.489Z,8.80
2017-08-30T17:15:23.219Z,10.10
2017-08-30T17:17:49.930Z,11.57
2017-08-30T17:20:16.681Z,8.70
2017-08-30T17:22:43.450Z,10.20
2017-08-30T17:25:10.197Z,9.10
2017-08-30T17:27:36.927Z,7.97
2017-08-30T17:30:03.793Z,9.40
2017-08-30T17:32:30.536Z,8.03
2017-08-30T17:34:57.255Z,7.97
2017-08-30T17:37:24.157Z,10.10
2017-08-30T17:39:51.046Z,11.10
2017-08-30T17:42:17.905Z,11.43
2017-08-30T17:44:44.643Z,14.43
2017-08-30T17:47:11.420Z,13.50
2017-08-30T17:49:38.121Z,13.63
2017-08-30T17:52:05.057Z,13.37
2017-08-30T17:54:31.780Z,14.70
2017-08-30T17:56:58.629Z,13.27
2017-08-30T17:59:25.449Z,11.73
2017-08-30T18:01:52.259Z,9.87
2017-08-30T18:04:19.029Z,10.13
2017-08-30T18:06:45.773Z,9.37
2017-08-30T18:09:12.496Z,10.63
2017-08-30T18:11:39.218Z,11.23
2017-08-30T18:14:05.951Z,11.43
2017-08-30T18:16:32.668Z,8.70
2017-08-30T18:18:59.379Z,8.70
2017-08-30T18:21:26.112Z,8.70
2017-08-30T18:23:52.821Z,12.73
2017-08-30T18:26:19.555Z,9.50
2017-08-30T18:28:46.290Z,8.17
2017-08-30T18:31:13.028Z,8.87
2017-08-30T18:33:39.748Z,9.37
2017-08-30T18:36:06.502Z,9.27
2017-08-30T18:38:33.260Z,8.97
2017-08-30T18:40:59.970Z,8.90
2017-08-30T18:43:26.850Z,8.83
2017-08-30T18:45:53.571Z,8.17
2017-08-30T18:48:20.326Z,7.70
2017-08-30T18:50:47.133Z,8.33
2017-08-30T18:53:13.895Z,8.90
2017-08-30T18:55:40.640Z,10.60
2017-08-30T18:58:07.459Z,7.90
2017-08-30T19:00:34.187Z,8.60
2017-08-30T19:03:00.902Z,9.80
2017-08-30T19:05:27.706Z,8.57
2017-08-30T19:07:54.474Z,9.00
2017-08-30T19:10:21.200Z,9.13
2017-08-30T19:12:48.013Z,9.80
2017-08-30T19:15:14.747Z,9.90
2017-08-30T19:17:41.490Z,9.30
2017-08-30T19:20:08.321Z,9.90
2017-08-30T19:22:35.116Z,9.40
2017-08-30T19:25:01.861Z,9.73
2017-08-30T19:27:28.607Z,10.30
2017-08-30T19:29:55.345Z,10.53
2017-08-30T19:32:22.099Z,9.30
2017-08-30T19:34:48.863Z,9.57
2017-08-30T19:37:15.607Z,9.47
2017-08-30T19:39:42.364Z,8.50
2017-08-30T19:42:09.108Z,9.40
2017-08-30T19:44:36.747Z,9.23
2017-08-30T19:47:03.699Z,8.70
2017-08-30T19:49:30.472Z,9.63
2017-08-30T19:51:57.229Z,9.80
2017-08-30T19:54:23.961Z,9.53
2017-08-30T19:56:50.741Z,9.50
2017-08-30T19:59:17.455Z,9.30
2017-08-30T20:01:44.146Z,9.83
2017-08-30T20:04:10.865Z,9.77
2017-08-30T20:06:37.599Z,10.03
2017-08-30T20:09:04.354Z,9.70
2017-08-30T20:11:31.135Z,9.93
2017-08-30T20:13:57.852Z,10.43
2017-08-30T20:16:24.547Z,9.33
2017-08-30T20:18:51.286Z,9.43
2017-08-30T20:21:18.006Z,11.33
2017-08-30T20:23:45.617Z,9.00
2017-08-30T20:26:12.378Z,8.93
2017-08-30T20:28:39.103Z,8.90
2017-08-30T20:31:05.807Z,9.33
2017-08-30T20:33:32.573Z,9.20
2017-08-30T20:35:59.271Z,9.50
2017-08-30T20:38:25.985Z,8.77
2017-08-30T20:40:52.732Z,9.87
2017-08-30T20:43:19.518Z,8.33
2017-08-30T20:45:46.251Z,9.07
2017-08-30T20:48:13.016Z,8.60
2017-08-30T20:50:39.740Z,9.43
2017-08-30T20:53:06.453Z,9.73
2017-08-30T20:55:33.178Z,8.57
2017-08-30T20:57:59.914Z,9.63
2017-08-30T21:00:26.634Z,9.07
2017-08-30T21:02:53.403Z,9.27
2017-08-30T21:05:20.110Z,10.00
2017-08-30T21:07:46.811Z,9.23
2017-08-30T21:10:13.556Z,8.90
2017-08-30T21:12:40.255Z,9.27
2017-08-30T21:15:06.965Z,9.40
2017-08-30T21:17:33.673Z,9.90
2017-08-30T21:20:00.379Z,9.17
2017-08-30T21:22:27.089Z,8.93
2017-08-30T21:24:53.808Z,9.97
2017-08-30T21:27:20.521Z,10.87
2017-08-30T21:29:47.237Z,8.27
2017-08-30T21:32:13.973Z,8.50
2017-08-30T21:34:40.682Z,9.97
2017-08-30T21:37:07.398Z,8.60
2017-08-30T21:39:34.126Z,10.07
2017-08-30T21:42:00.830Z,9.20
2017-08-30T21:44:27.541Z,10.13
2017-08-30T21:46:54.279Z,9.53
2017-08-30T21:49:20.983Z,8.93
2017-08-30T21:51:47.695Z,9.73
2017-08-30T21:54:15.336Z,9.63
2017-08-30T21:56:42.043Z,10.37
2017-08-30T21:59:09.776Z,9.50
2017-08-30T22:01:36.552Z,10.63
2017-08-30T22:04:03.271Z,10.10
2017-08-30T22:06:29.971Z,10.53
2017-08-30T22:08:56.714Z,9.63
2017-08-30T22:11:23.426Z,9.60
2017-08-30T22:13:50.135Z,9.57
2017-08-30T22:16:16.856Z,9.10
2017-08-30T22:18:43.562Z,10.43
2017-08-30T22:21:10.287Z,9.73
2017-08-30T22:23:37.000Z,9.77
2017-08-30T22:26:03.706Z,9.23
2017-08-30T22:28:30.402Z,10.30
2017-08-30T22:30:57.126Z,9.93
2017-08-30T22:33:23.823Z,9.50
2017-08-30T22:35:50.522Z,9.03
2017-08-30T22:38:17.276Z,9.20
2017-08-30T22:40:44.025Z,9.10
2017-08-30T22:43:10.743Z,10.73
2017-08-30T22:45:37.474Z,9.73
2017-08-30T22:48:04.176Z,10.83
2017-08-30T22:50:30.868Z,9.20
2017-08-30T22:52:57.592Z,10.80
2017-08-30T22:55:24.308Z,10.00
2017-08-30T22:57:51.010Z,11.63
2017-08-30T23:00:17.748Z,9.97
2017-08-30T23:05:24.431Z,8.93
2017-08-30T23:07:51.154Z,12.33
2017-08-30T23:10:17.964Z,9.37
2017-08-30T23:12:44.700Z,9.57
2017-08-30T23:15:11.421Z,8.40
2017-08-30T23:17:38.192Z,9.60
2017-08-30T23:20:04.956Z,8.53
2017-08-30T23:22:31.671Z,9.20
2017-08-30T23:24:58.443Z,10.03
2017-08-30T23:27:25.156Z,9.10
2017-08-30T23:29:51.860Z,8.10
2017-08-30T23:32:18.664Z,10.53
2017-08-30T23:34:45.403Z,8.47
2017-08-30T23:37:12.115Z,9.93
2017-08-30T23:39:38.824Z,9.50
2017-08-30T23:42:05.547Z,10.50
2017-08-30T23:44:32.271Z,9.13
2017-08-30T23:46:58.969Z,11.50
2017-08-30T23:49:25.686Z,10.63
2017-08-30T23:51:52.396Z,10.83
2017-08-30T23:54:19.101Z,10.50
2017-08-30T23:56:45.937Z,10.13
2017-08-30T23:59:12.662Z,9.83
